createdAt,value
2023-04-19T00:03:15.161Z,100170.69
2023-04-19T00:08:17.452Z,100152.06
2023-04-19T00:13:19.735Z,100127.84
2023-04-19T00:18:22.062Z,100145.00
2023-04-19T00:23:24.195Z,100118.13
2023-04-19T00:28:26.570Z,100128.06
2023-04-19T00:33:28.804Z,100156.78
2023-04-19T00:38:31.173Z,100163.81
2023-04-19T00:43:33.334Z,100154.72
2023-04-19T00:48:38.531Z,100142.94
2023-04-19T00:53:41.573Z,100163.28
2023-04-19T00:58:43.871Z,100137.03
2023-04-19T01:03:47.256Z,100153.34
2023-04-19T01:08:49.824Z,100147.34
2023-04-19T01:13:52.287Z,100127.47
2023-04-19T01:18:54.634Z,100145.91
2023-04-19T01:23:56.770Z,100140.50
2023-04-19T01:28:58.939Z,100132.44
2023-04-19T01:34:01.121Z,100127.47
2023-04-19T01:39:03.335Z,100128.28
2023-04-19T01:44:05.486Z,100150.25
2023-04-19T01:49:08.175Z,100134.72
2023-04-19T01:54:10.265Z,100125.22
2023-04-19T01:59:12.486Z,100123.94
2023-04-19T02:04:14.894Z,100126.63
2023-04-19T02:09:17.291Z,100128.47
2023-04-19T02:14:19.537Z,100129.72
2023-04-19T02:19:21.637Z,100148.09
2023-04-19T02:24:25.023Z,100111.47
2023-04-19T02:29:27.353Z,100116.00
2023-04-19T02:34:29.484Z,100107.09
2023-04-19T02:39:31.817Z,100116.22
2023-04-19T02:44:33.980Z,100125.69
2023-04-19T02:49:38.321Z,100113.91
2023-04-19T02:54:40.489Z,100108.72
2023-04-19T02:59:42.619Z,100120.34
2023-04-19T03:04:44.771Z,100106.50
2023-04-19T03:09:46.917Z,100128.81
2023-04-19T03:14:49.871Z,100118.34
2023-04-19T03:19:52.885Z,100120.84
2023-04-19T03:24:54.952Z,100107.19
2023-04-19T03:29:57.731Z,100110.06
2023-04-19T03:34:59.818Z,100084.44
2023-04-19T03:40:02.162Z,100134.03
2023-04-19T03:45:04.757Z,100106.31
2023-04-19T03:50:07.317Z,100103.00
2023-04-19T03:55:10.366Z,100117.88
2023-04-19T04:00:13.600Z,100093.28
2023-04-19T04:05:16.259Z,100122.44
2023-04-19T04:10:18.494Z,100129.06
2023-04-19T04:15:20.732Z,100125.97
2023-04-19T04:20:22.940Z,100122.00
2023-04-19T04:25:26.332Z,100118.75
2023-04-19T04:30:29.022Z,100135.91
2023-04-19T04:35:31.237Z,100106.31
2023-04-19T04:40:33.942Z,100130.94
2023-04-19T04:45:36.171Z,100116.22
2023-04-19T04:50:38.448Z,100107.31
2023-04-19T04:55:40.593Z,100104.53
2023-04-19T05:00:42.795Z,100122.94
2023-04-19T05:05:45.353Z,100106.41
2023-04-19T05:10:47.790Z,100117.38
2023-04-19T05:15:49.971Z,100116.97
2023-04-19T05:20:52.251Z,100141.72
2023-04-19T05:25:54.420Z,100135.47
2023-04-19T06:52:31.563Z,100160.31
2023-04-19T06:57:33.910Z,100148.41
2023-04-19T07:02:36.449Z,100162.38
2023-04-19T07:07:38.818Z,100167.38
2023-04-19T07:12:41.053Z,100178.22
2023-04-19T07:17:43.254Z,100145.50
2023-04-19T07:22:45.436Z,100147.16
2023-04-19T07:27:47.646Z,100167.47
2023-04-19T07:32:52.118Z,100153.03
2023-04-19T07:37:54.468Z,100173.59
2023-04-19T07:42:57.212Z,100166.16
2023-04-19T07:47:59.458Z,100165.41
2023-04-19T07:53:01.679Z,100171.03
2023-04-19T07:58:07.491Z,100165.97
2023-04-19T08:03:09.991Z,100179.63
2023-04-19T08:08:12.930Z,100181.88
2023-04-19T08:13:15.448Z,100169.47
2023-04-19T08:18:17.649Z,100157.44
2023-04-19T08:23:25.771Z,100149.28
2023-04-19T08:28:30.092Z,100165.44
2023-04-19T08:33:32.265Z,100145.47
2023-04-19T08:38:34.557Z,100134.03
2023-04-19T08:43:39.879Z,100152.38
2023-04-19T08:48:45.524Z,100162.97
2023-04-19T08:53:50.122Z,100144.97
2023-04-19T09:04:10.439Z,100119.00
2023-04-19T09:14:30.067Z,100144.47
2023-04-19T09:19:47.099Z,100126.47
2023-04-19T09:29:58.802Z,100123.13
2023-04-19T09:35:01.295Z,100079.69
2023-04-19T09:40:22.952Z,100101.41
2023-04-19T09:50:31.882Z,100070.72
2023-04-19T09:55:48.850Z,100103.88
2023-04-19T10:01:13.511Z,100107.22
2023-04-19T10:11:27.846Z,100101.56
2023-04-19T10:16:31.192Z,100096.97
2023-04-19T10:21:34.412Z,100084.59
2023-04-19T10:27:14.151Z,100091.75
2023-04-19T10:32:16.672Z,100066.75
2023-04-19T10:37:23.656Z,100095.03
2023-04-19T10:42:25.822Z,100080.69
2023-04-19T10:47:46.373Z,100077.84
2023-04-19T10:52:48.527Z,100079.44
2023-04-19T10:58:04.389Z,100093.84
2023-04-19T11:03:44.097Z,100089.66
2023-04-19T11:08:47.522Z,100069.28
2023-04-19T11:13:49.773Z,100088.75
2023-04-19T11:18:52.131Z,100065.06
2023-04-19T11:24:11.044Z,100068.66
2023-04-19T11:29:13.806Z,100073.75
2023-04-19T11:34:16.296Z,100096.41
2023-04-19T11:39:20.090Z,100089.63
2023-04-19T11:44:22.265Z,100064.69
2023-04-19T11:49:33.092Z,100098.47
2023-04-19T11:54:35.342Z,100096.81
2023-04-19T11:59:37.562Z,100102.31
2023-04-19T12:04:40.472Z,100102.25
2023-04-19T12:09:42.734Z,100085.53
2023-04-19T12:14:52.877Z,100102.41
2023-04-19T12:19:55.206Z,100081.34
2023-04-19T12:24:58.081Z,100065.16
2023-04-19T12:30:00.280Z,100092.44
2023-04-19T12:35:02.499Z,100079.34
2023-04-19T12:40:05.670Z,100073.28
2023-04-19T12:45:08.461Z,100053.41
2023-04-19T12:50:11.109Z,100063.66
2023-04-19T12:55:13.530Z,100058.13
2023-04-19T13:00:15.979Z,100039.78
2023-04-19T13:05:19.216Z,100039.13
2023-04-19T13:10:21.588Z,100035.63
2023-04-19T13:15:23.801Z,100054.94
2023-04-19T13:20:26.073Z,100050.03
2023-04-19T13:25:28.493Z,100042.59
2023-04-19T13:30:31.070Z,100048.63
2023-04-19T13:35:33.316Z,100043.53
2023-04-19T13:40:35.616Z,100042.97
2023-04-19T13:45:37.958Z,100060.44
2023-04-19T13:50:40.372Z,100062.88
2023-04-19T13:55:42.671Z,100048.91
2023-04-19T14:00:45.170Z,100066.00
2023-04-19T14:05:47.481Z,100066.97
2023-04-19T14:10:51.440Z,100070.25
2023-04-19T14:15:53.803Z,100064.31
2023-04-19T14:20:56.328Z,100077.88
2023-04-19T14:25:58.507Z,100047.81
2023-04-19T14:31:02.968Z,100074.50
2023-04-19T14:36:05.250Z,100073.38
2023-04-19T14:41:07.810Z,100066.38
2023-04-19T14:46:10.142Z,100085.81
2023-04-19T14:51:12.409Z,100053.00
2023-04-19T14:56:14.598Z,100075.94
2023-04-19T15:01:16.804Z,100080.75
2023-04-19T15:06:19.059Z,100068.03
2023-04-19T15:11:21.458Z,100062.38
2023-04-19T15:16:23.657Z,100074.50
2023-04-19T15:21:26.180Z,100092.63
2023-04-19T15:26:29.300Z,100064.34
2023-04-19T15:31:32.767Z,100100.63
2023-04-19T15:36:35.030Z,100109.97
2023-04-19T15:41:37.286Z,100100.47
2023-04-19T15:46:39.562Z,100114.53
2023-04-19T15:51:41.825Z,100109.44
2023-04-19T15:56:44.145Z,100118.97
2023-04-19T16:01:46.371Z,100129.72
2023-04-19T16:06:48.650Z,100099.44
2023-04-19T16:11:51.081Z,100112.16
2023-04-19T16:16:54.164Z,100137.50
2023-04-19T16:21:57.213Z,100087.81
2023-04-19T16:26:59.440Z,100110.81
2023-04-19T16:32:01.856Z,100095.50
2023-04-19T16:37:04.189Z,100117.59
2023-04-19T16:42:06.530Z,100104.31
2023-04-19T16:47:08.802Z,100103.38
2023-04-19T16:52:11.058Z,100130.41
2023-04-19T16:57:13.284Z,100143.75
2023-04-19T17:02:15.879Z,100129.25
2023-04-19T17:07:18.253Z,100133.25
2023-04-19T17:12:20.525Z,100142.91
2023-04-19T17:17:22.780Z,100130.44
2023-04-19T17:22:25.032Z,100161.63
2023-04-19T17:27:27.320Z,100160.09
2023-04-19T17:32:29.556Z,100163.09
2023-04-19T17:37:31.974Z,100178.91
2023-04-19T17:42:34.133Z,100183.00
2023-04-19T17:47:36.379Z,100181.66
2023-04-19T17:52:39.642Z,100200.53
2023-04-19T17:57:41.929Z,100196.91
2023-04-19T18:02:44.224Z,100199.13
2023-04-19T18:07:47.047Z,100220.16
2023-04-19T18:12:49.310Z,100212.97
2023-04-19T18:17:51.572Z,100205.16
2023-04-19T18:22:54.078Z,100205.16
2023-04-19T18:27:56.389Z,100201.03
2023-04-19T18:32:59.284Z,100233.38
2023-04-19T18:38:02.078Z,100203.50
2023-04-19T18:43:04.320Z,100211.03
2023-04-19T18:48:06.719Z,100229.88
2023-04-19T18:53:08.892Z,100231.44
2023-04-19T18:58:12.330Z,100265.81
2023-04-19T19:03:33.878Z,100269.19
2023-04-19T19:08:36.869Z,100263.03
2023-04-19T19:13:39.847Z,100279.69
2023-04-19T19:18:42.054Z,100267.53
2023-04-19T19:23:44.280Z,100279.00
2023-04-19T19:28:47.365Z,100271.81
2023-04-19T19:33:53.541Z,100282.31
2023-04-19T19:39:00.463Z,100263.97
2023-04-19T19:44:03.105Z,100253.97
2023-04-19T19:49:06.548Z,100270.88
2023-04-19T19:54:10.067Z,100285.88
2023-04-19T19:59:14.076Z,100271.75
2023-04-19T20:04:16.662Z,100277.53
2023-04-19T20:09:19.236Z,100272.59
2023-04-19T20:14:25.467Z,100305.75
2023-04-19T20:19:27.945Z,100283.16
2023-04-19T20:24:31.220Z,100296.66
2023-04-19T20:29:33.472Z,100297.88
2023-04-19T20:34:35.776Z,100298.69
2023-04-19T20:39:38.129Z,100310.59
2023-04-19T20:44:40.750Z,100350.94
2023-04-19T20:49:42.923Z,100347.16
2023-04-19T20:54:45.184Z,100342.53
2023-04-19T20:59:49.370Z,100334.63
2023-04-19T21:04:51.655Z,100325.47
2023-04-19T21:09:53.849Z,100313.28
2023-04-19T21:14:56.105Z,100338.09
2023-04-19T21:19:58.244Z,100317.00
2023-04-19T21:25:00.443Z,100352.44
2023-04-19T21:30:06.549Z,100344.53
2023-04-19T21:35:09.137Z,100327.41
2023-04-19T21:40:11.742Z,100312.94
2023-04-19T21:45:13.934Z,100331.69
2023-04-19T21:50:16.264Z,100323.94
2023-04-19T21:55:19.033Z,100337.91
2023-04-19T22:00:21.221Z,100335.03
2023-04-19T22:05:23.471Z,100343.72
2023-04-19T22:10:26.250Z,100340.44
2023-04-19T22:15:29.028Z,100329.47
2023-04-19T22:20:32.626Z,100331.34
2023-04-19T22:25:34.979Z,100331.38
2023-04-19T22:30:37.935Z,100333.97
2023-04-19T22:35:40.145Z,100330.22
2023-04-19T22:40:42.646Z,100326.09
2023-04-19T22:45:48.380Z,100314.44
2023-04-19T22:50:52.933Z,100321.09
2023-04-19T22:55:55.220Z,100324.63
2023-04-19T23:00:57.510Z,100329.34
2023-04-19T23:06:00.963Z,100307.41
2023-04-19T23:11:05.346Z,100316.16
2023-04-19T23:16:11.401Z,100324.25
2023-04-19T23:21:13.650Z,100304.28
2023-04-19T23:26:16.035Z,100300.97
2023-04-19T23:31:18.363Z,100314.84
2023-04-19T23:36:20.830Z,100271.13
2023-04-19T23:41:23.072Z,100305.69
2023-04-19T23:46:25.448Z,100282.53
2023-04-19T23:51:28.324Z,100307.41
2023-04-19T23:56:30.912Z,100289.81
